Time;durP1;ratioP1;P1;durP2;ratioP2;P2;SDS_P1;SDS_P2;PMS_P1;PMS_P2;Temp;Humidity;BMP_temperature;BMP_pressure;BME280_temperature;BME280_humidity;BME280_pressure;Samples;Min_cycle;Max_cycle;Signal;HPM_P1;HPM_P2
2021/10/22 00:00:35;;;;;;;8.48;1.92;;;;;;;10.71;63.00;100924.84;5073759;28;20059;-89
2021/10/22 00:03:00;;;;;;;7.15;1.52;;;;;;;10.76;63.02;100929.81;5072313;28;20475;-88
2021/10/22 00:05:25;;;;;;;5.53;1.83;;;;;;;10.78;62.58;100932.34;5073529;28;20021;-89
2021/10/22 00:07:51;;;;;;;5.75;1.50;;;;;;;10.77;62.44;100926.25;5072827;28;20020;-89
2021/10/22 00:10:16;;;;;;;9.25;1.83;;;;;;;10.65;62.27;100927.84;5073425;28;20047;-89
2021/10/22 00:12:42;;;;;;;7.57;1.40;;;;;;;10.58;62.39;100928.31;5073654;28;20111;-88
2021/10/22 00:15:08;;;;;;;6.25;1.33;;;;;;;10.52;62.04;100926.88;5072818;28;20031;-89
2021/10/22 00:17:35;;;;;;;7.70;1.75;;;;;;;10.42;62.34;100928.38;5073311;28;20131;-89
2021/10/22 00:20:00;;;;;;;7.05;2.13;;;;;;;10.38;62.16;100927.69;5073349;28;20025;-88
2021/10/22 00:22:25;;;;;;;6.28;2.05;;;;;;;10.42;62.47;100925.75;5073042;28;20043;-88
2021/10/22 00:24:51;;;;;;;7.65;1.25;;;;;;;10.41;62.72;100922.28;5073017;28;20028;-89
2021/10/22 00:27:16;;;;;;;12.20;1.88;;;;;;;10.38;61.76;100924.25;5073061;28;20025;-89
2021/10/22 00:29:41;;;;;;;8.07;3.00;;;;;;;10.29;62.45;100921.19;5073734;28;20036;-88
2021/10/22 00:32:07;;;;;;;5.45;0.93;;;;;;;10.30;62.47;100917.66;5073047;28;20131;-88
2021/10/22 00:34:32;;;;;;;8.27;1.88;;;;;;;10.22;62.62;100914.59;5073023;28;20029;-88
2021/10/22 00:36:58;;;;;;;6.65;1.67;;;;;;;10.25;62.43;100917.06;5072866;28;20052;-88
2021/10/22 00:39:24;;;;;;;6.68;1.30;;;;;;;10.26;62.31;100921.34;5073045;28;20025;-89
2021/10/22 00:41:50;;;;;;;5.75;1.42;;;;;;;10.28;62.46;100916.84;5072625;28;20020;-88
2021/10/22 00:44:15;;;;;;;5.20;1.73;;;;;;;10.26;62.09;100916.09;5072856;28;20479;-88
2021/10/22 00:46:41;;;;;;;7.22;1.70;;;;;;;10.13;62.77;100917.78;5072788;28;20020;-88
2021/10/22 00:49:11;;;;;;;8.25;1.30;;;;;;;10.23;62.70;100918.94;5072925;28;20047;-88
2021/10/22 00:51:37;;;;;;;6.70;1.88;;;;;;;10.19;62.47;100925.28;5072660;28;20541;-89
2021/10/22 00:54:09;;;;;;;8.43;1.70;;;;;;;10.02;62.32;100922.78;5072627;28;20467;-88
2021/10/22 00:56:34;;;;;;;;;;;;;;;10.25;62.42;100911.81;5072936;28;20028;-88
2021/10/22 00:59:02;;;;;;;5.25;1.17;;;;;;;10.08;62.83;100914.56;5072614;28;19916;-89
2021/10/22 01:01:28;;;;;;;8.90;1.67;;;;;;;10.01;62.30;100913.22;5072605;28;20028;-88
2021/10/22 01:03:53;;;;;;;7.00;1.17;;;;;;;9.95;62.35;100910.94;5072538;28;20089;-89
2021/10/22 01:06:19;;;;;;;8.23;1.65;;;;;;;9.87;63.18;100920.13;5072636;28;20290;-88
2021/10/22 01:08:45;;;;;;;3.53;0.88;;;;;;;9.92;62.72;100925.94;5072575;28;20379;-89
2021/10/22 01:11:10;;;;;;;7.53;1.30;;;;;;;9.96;63.09;100928.38;5070660;28;20020;-89
2021/10/22 01:13:38;;;;;;;4.88;1.48;;;;;;;9.97;63.44;100930.06;5072005;28;20111;-88
2021/10/22 01:16:03;;;;;;;5.65;1.45;;;;;;;9.92;62.92;100914.59;5072346;28;20035;-88
2021/10/22 01:18:29;;;;;;;4.07;1.40;;;;;;;9.99;63.47;100923.81;5072214;28;20024;-88
2021/10/22 01:21:02;;;;;;;11.68;1.70;;;;;;;10.17;63.18;100927.16;5072035;28;20107;-89
2021/10/22 01:23:28;;;;;;;6.03;1.80;;;;;;;10.02;63.24;100931.50;5072198;28;20027;-88
2021/10/22 01:25:54;;;;;;;5.00;1.10;;;;;;;10.01;62.86;100931.56;5071273;28;20020;-88
2021/10/22 01:28:20;;;;;;;5.60;1.38;;;;;;;9.99;63.61;100922.94;5071459;28;20051;-89
2021/10/22 01:30:47;;;;;;;4.13;1.30;;;;;;;9.96;63.00;100923.97;5072229;28;20078;-88
2021/10/22 01:33:17;;;;;;;3.95;1.30;;;;;;;9.91;63.41;100921.63;5071900;28;20064;-88
2021/10/22 01:35:43;;;;;;;5.68;1.65;;;;;;;9.59;63.72;100927.81;5072144;28;20043;-89
2021/10/22 01:38:08;;;;;;;6.30;1.35;;;;;;;9.60;64.47;100919.88;5072029;28;20020;-89
2021/10/22 01:40:34;;;;;;;8.15;2.03;;;;;;;9.60;64.53;100919.03;5071768;28;20078;-88
2021/10/22 01:42:59;;;;;;;13.65;2.15;;;;;;;9.57;64.92;100914.78;5071656;28;20024;-88
2021/10/22 01:45:24;;;;;;;5.97;1.58;;;;;;;9.54;65.24;100922.84;5071891;28;20047;-88
2021/10/22 01:47:50;;;;;;;8.05;1.65;;;;;;;9.57;65.17;100919.19;5071832;28;20025;-89
2021/10/22 01:50:15;;;;;;;11.85;2.47;;;;;;;9.60;64.37;100921.66;5071954;28;20077;-88
2021/10/22 01:52:41;;;;;;;4.28;1.27;;;;;;;9.55;65.18;100926.31;5071713;28;20024;-88
2021/10/22 01:55:07;;;;;;;8.73;1.85;;;;;;;9.50;65.19;100927.41;5071703;28;20033;-88
2021/10/22 01:57:32;;;;;;;9.95;2.08;;;;;;;9.48;64.42;100921.41;5071052;28;20052;-89
2021/10/22 01:59:58;;;;;;;5.50;1.83;;;;;;;9.46;65.21;100918.03;5071671;28;20510;-88
2021/10/22 02:02:23;;;;;;;6.68;1.45;;;;;;;9.49;64.94;100923.09;5071758;28;20490;-89
2021/10/22 02:04:49;;;;;;;7.30;1.55;;;;;;;9.37;65.28;100915.91;5071863;28;20036;-88
2021/10/22 02:07:14;;;;;;;7.72;1.60;;;;;;;9.41;65.50;100920.03;5071904;28;20154;-89
2021/10/22 02:09:40;;;;;;;7.82;2.25;;;;;;;9.40;65.06;100925.34;5071569;28;20021;-89
2021/10/22 02:12:06;;;;;;;6.70;1.48;;;;;;;9.45;65.46;100915.47;5071135;28;20031;-88
2021/10/22 02:14:32;;;;;;;7.00;2.00;;;;;;;9.48;65.59;100910.91;5071485;28;20067;-88
2021/10/22 02:16:57;;;;;;;9.52;1.42;;;;;;;9.34;66.33;100908.22;5071513;28;20032;-88
2021/10/22 02:19:23;;;;;;;3.88;1.20;;;;;;;9.42;65.56;100913.88;5071583;28;20024;-88
2021/10/22 02:21:48;;;;;;;5.68;1.38;;;;;;;9.34;65.39;100910.84;5071419;28;20028;-88
2021/10/22 02:24:13;;;;;;;10.48;1.88;;;;;;;9.35;65.32;100909.91;5071361;28;20020;-89
2021/10/22 02:26:39;;;;;;;6.43;1.67;;;;;;;9.42;65.32;100907.78;5070651;28;20028;-88
2021/10/22 02:29:04;;;;;;;5.15;1.20;;;;;;;9.45;65.60;100905.00;5071322;28;20028;-89
2021/10/22 02:31:30;;;;;;;13.35;1.95;;;;;;;9.54;66.67;100904.50;5071342;28;20025;-88
2021/10/22 02:33:55;;;;;;;11.13;1.80;;;;;;;9.52;66.16;100901.97;5069952;28;20078;-88
2021/10/22 02:36:21;;;;;;;10.15;1.60;;;;;;;9.52;67.48;100901.97;5071974;28;20035;-89
2021/10/22 02:38:47;;;;;;;8.65;1.75;;;;;;;9.61;67.20;100897.13;5072679;28;20685;-88
2021/10/22 02:41:12;;;;;;;6.18;2.45;;;;;;;9.65;66.16;100888.16;5074781;28;20029;-88
2021/10/22 02:43:37;;;;;;;6.82;1.40;;;;;;;9.69;66.40;100892.28;5074879;28;20059;-88
2021/10/22 02:46:03;;;;;;;6.32;1.83;;;;;;;9.67;65.85;100887.13;5073613;28;20024;-88
2021/10/22 02:48:28;;;;;;;6.53;1.95;;;;;;;9.56;65.48;100893.91;5075013;28;20381;-88
2021/10/22 02:50:54;;;;;;;9.70;1.88;;;;;;;9.56;66.96;100896.53;5073862;28;20029;-88
2021/10/22 02:53:19;;;;;;;10.63;1.85;;;;;;;9.75;66.49;100884.06;5074951;28;20028;-88
2021/10/22 02:55:45;;;;;;;6.30;1.30;;;;;;;9.75;66.26;100881.44;5074666;28;20382;-88
2021/10/22 02:58:10;;;;;;;7.07;1.98;;;;;;;9.76;66.45;100883.16;5074651;28;20020;-88
2021/10/22 03:00:36;;;;;;;8.70;2.15;;;;;;;9.77;65.90;100879.59;5074897;28;20070;-88
2021/10/22 03:03:02;;;;;;;7.88;2.10;;;;;;;9.83;66.46;100884.47;5074734;28;20021;-86
2021/10/22 03:05:31;;;;;;;12.13;2.28;;;;;;;9.79;66.81;100882.97;5074783;28;20032;-88
2021/10/22 03:07:57;;;;;;;7.05;1.60;;;;;;;9.88;66.09;100887.69;5074607;28;20032;-88
2021/10/22 03:10:23;;;;;;;6.25;1.58;;;;;;;9.75;66.22;100884.06;5073151;28;20020;-88
2021/10/22 03:12:48;;;;;;;4.45;1.00;;;;;;;9.77;65.98;100887.44;5073108;28;20105;-88
2021/10/22 03:15:15;;;;;;;6.15;1.58;;;;;;;9.70;65.84;100886.13;5074717;28;20360;-88
2021/10/22 03:17:40;;;;;;;11.43;1.92;;;;;;;9.66;66.20;100882.00;5074567;28;20028;-88
2021/10/22 03:20:06;;;;;;;9.20;1.25;;;;;;;9.59;68.14;100876.22;5074634;28;20023;-88
2021/10/22 03:22:32;;;;;;;6.85;1.17;;;;;;;9.83;67.38;100887.09;5074311;28;20032;-89
2021/10/22 03:24:57;;;;;;;4.18;1.05;;;;;;;9.89;67.69;100889.41;5074332;28;20474;-88
2021/10/22 03:27:23;;;;;;;4.22;1.20;;;;;;;9.93;67.69;100879.53;5074178;28;20191;-88
2021/10/22 03:29:50;;;;;;;6.60;0.90;;;;;;;10.18;67.13;100893.88;5074486;28;20081;-88
2021/10/22 03:32:15;;;;;;;5.78;0.93;;;;;;;10.24;66.39;100880.41;5073303;28;20051;-88
2021/10/22 03:34:41;;;;;;;6.68;2.25;;;;;;;10.28;66.09;100885.38;5074328;28;20390;-88
2021/10/22 03:37:06;;;;;;;5.88;0.90;;;;;;;10.33;66.44;100885.16;5074171;28;20032;-88
2021/10/22 03:39:32;;;;;;;3.60;0.98;;;;;;;10.32;66.38;100879.03;5074118;28;20471;-88
2021/10/22 03:41:57;;;;;;;4.88;1.50;;;;;;;10.30;66.20;100878.28;5072176;28;20103;-88
2021/10/22 03:44:23;;;;;;;4.68;1.02;;;;;;;10.26;65.57;100876.75;5074150;28;20050;-88
2021/10/22 03:46:48;;;;;;;5.15;1.05;;;;;;;10.23;66.09;100881.31;5074015;28;20033;-88
2021/10/22 03:49:14;;;;;;;6.50;0.93;;;;;;;10.28;66.62;100874.88;5072866;28;20058;-88
2021/10/22 03:51:39;;;;;;;6.72;1.08;;;;;;;10.32;65.97;100881.66;5074506;28;20032;-88
2021/10/22 03:54:04;;;;;;;4.03;1.10;;;;;;;10.33;66.02;100882.53;5073824;28;20601;-88
2021/10/22 03:56:30;;;;;;;10.63;1.92;;;;;;;10.27;65.65;100883.69;5073909;28;20078;-88
2021/10/22 03:58:55;;;;;;;10.73;1.60;;;;;;;10.34;65.85;100889.44;5073378;28;20382;-88
2021/10/22 04:01:21;;;;;;;6.55;1.30;;;;;;;10.36;65.55;100891.97;5073791;28;20081;-88
2021/10/22 04:03:47;;;;;;;9.40;1.40;;;;;;;10.22;66.15;100880.47;5073837;28;20425;-88
2021/10/22 04:06:12;;;;;;;6.00;1.30;;;;;;;10.37;65.85;100885.78;5073187;28;20024;-88
2021/10/22 04:08:38;;;;;;;5.70;0.90;;;;;;;10.39;65.69;100882.16;5073181;28;20020;-89
2021/10/22 04:11:03;;;;;;;6.90;1.75;;;;;;;10.55;65.59;100892.56;5073401;28;20447;-88
2021/10/22 04:13:29;;;;;;;7.57;1.20;;;;;;;10.50;65.20;100894.63;5073481;28;20505;-88
2021/10/22 04:15:55;;;;;;;6.53;0.80;;;;;;;10.58;65.14;100904.66;5073620;28;20073;-88
2021/10/22 04:18:20;;;;;;;6.88;1.63;;;;;;;10.53;64.90;100891.81;5073409;28;20024;-88
2021/10/22 04:20:46;;;;;;;8.45;1.23;;;;;;;10.54;65.46;100892.66;5073362;28;20025;-88
2021/10/22 04:23:11;;;;;;;9.38;1.42;;;;;;;10.58;64.85;100900.25;5072995;28;20471;-88
2021/10/22 04:25:38;;;;;;;6.40;0.90;;;;;;;10.66;65.01;100897.16;5073415;28;20039;-88
2021/10/22 04:28:04;;;;;;;3.65;1.15;;;;;;;10.63;64.58;100903.47;5073255;28;20386;-88
2021/10/22 04:30:30;;;;;;;3.33;0.80;;;;;;;10.67;64.93;100907.59;5073446;28;20025;-88
2021/10/22 04:32:56;;;;;;;7.20;1.00;;;;;;;10.64;64.86;100907.78;5073237;28;20074;-88
2021/10/22 04:35:21;;;;;;;4.28;0.80;;;;;;;10.65;64.39;100913.88;5073077;28;20037;-89
2021/10/22 04:37:59;;;;;;;6.13;0.98;;;;;;;10.64;64.29;100918.28;5072561;28;20046;-88
2021/10/22 04:40:35;;;;;;;4.82;0.80;;;;;;;10.64;64.32;100915.66;5073196;28;20036;-88
2021/10/22 04:43:06;;;;;;;9.68;1.27;;;;;;;10.87;63.76;100918.69;5072896;28;20016;-88
2021/10/22 04:45:34;;;;;;;10.20;1.42;;;;;;;10.70;63.84;100907.41;5072941;28;20025;-89
2021/10/22 04:48:01;;;;;;;5.15;0.80;;;;;;;10.88;63.37;100917.72;5072804;28;20459;-88
2021/10/22 04:50:27;;;;;;;6.05;1.00;;;;;;;10.89;62.79;100920.25;5073409;28;20024;-88
2021/10/22 04:52:55;;;;;;;10.45;1.13;;;;;;;10.80;63.39;100923.47;5072492;28;20425;-88
2021/10/22 04:55:23;;;;;;;8.02;1.10;;;;;;;10.88;63.27;100918.59;5072789;28;20517;-88
2021/10/22 04:57:50;;;;;;;7.47;1.23;;;;;;;10.85;63.59;100931.06;5072550;28;20489;-88
2021/10/22 05:00:16;;;;;;;9.00;1.90;;;;;;;10.62;63.38;100925.38;5072388;28;20056;-88
2021/10/22 05:02:43;;;;;;;7.55;1.52;;;;;;;10.74;62.89;100928.22;5072431;28;20054;-88
2021/10/22 05:05:09;;;;;;;7.18;1.00;;;;;;;10.83;62.72;100932.94;5072162;28;20032;-88
2021/10/22 05:07:34;;;;;;;4.60;0.90;;;;;;;11.00;62.65;100929.25;5071029;28;20383;-89
2021/10/22 05:09:59;;;;;;;5.28;0.80;;;;;;;10.93;61.73;100927.97;5071242;28;20025;-89
2021/10/22 05:12:25;;;;;;;10.40;1.27;;;;;;;10.80;62.00;100925.22;5070997;28;20025;-88
2021/10/22 05:14:51;;;;;;;6.63;0.77;;;;;;;10.74;62.57;100912.47;5072431;28;20066;-88
2021/10/22 05:17:16;;;;;;;4.68;1.15;;;;;;;10.79;62.58;100920.94;5072294;28;20025;-88
2021/10/22 05:19:42;;;;;;;6.20;1.20;;;;;;;10.82;62.43;100920.72;5071941;28;20020;-88
2021/10/22 05:22:07;;;;;;;7.90;1.10;;;;;;;10.80;62.38;100927.84;5072156;28;20028;-88
2021/10/22 05:24:33;;;;;;;10.98;1.25;;;;;;;11.00;61.79;100932.75;5071783;28;20390;-88
2021/10/22 05:26:58;;;;;;;7.97;1.40;;;;;;;10.88;61.98;100923.84;5072308;28;20025;-88
2021/10/22 05:29:24;;;;;;;5.13;1.10;;;;;;;10.92;61.59;100927.13;5072289;28;20071;-88
2021/10/22 05:31:49;;;;;;;3.03;0.70;;;;;;;10.95;61.84;100932.19;5072097;28;20470;-88
2021/10/22 05:34:16;;;;;;;7.05;1.42;;;;;;;10.71;63.06;100924.84;5067335;28;20105;-89
2021/10/22 05:36:42;;;;;;;7.57;1.35;;;;;;;10.77;62.71;100931.53;5055877;28;20029;-89
2021/10/22 05:39:08;;;;;;;7.20;1.20;;;;;;;10.80;62.95;100940.97;5070993;28;20024;-89
2021/10/22 05:41:33;;;;;;;4.97;0.80;;;;;;;10.82;63.17;100939.97;5072054;28;20028;-89
2021/10/22 05:43:59;;;;;;;5.40;1.05;;;;;;;10.93;62.83;100926.19;5068170;28;20497;-89
2021/10/22 05:46:24;;;;;;;8.15;1.00;;;;;;;10.98;62.93;100931.13;5064012;28;20095;-88
2021/10/22 05:48:50;;;;;;;9.27;1.67;;;;;;;10.95;62.45;100928.72;5065561;28;20031;-89
2021/10/22 05:51:16;;;;;;;5.90;0.68;;;;;;;11.09;62.79;100934.78;5066737;28;20360;-88
2021/10/22 05:53:41;;;;;;;7.78;1.27;;;;;;;11.01;62.45;100930.97;5067215;28;20408;-88
2021/10/22 05:56:08;;;;;;;11.32;2.65;;;;;;;11.09;61.85;100937.44;5067806;28;20024;-88
2021/10/22 05:58:34;;;;;;;9.85;1.10;;;;;;;11.03;62.05;100927.28;5057850;28;20028;-89
2021/10/22 06:00:59;;;;;;;6.07;0.82;;;;;;;10.99;61.87;100933.69;5064961;28;20039;-88
2021/10/22 06:03:24;;;;;;;6.72;0.65;;;;;;;11.26;61.62;100919.78;5056003;28;20116;-88
2021/10/22 06:05:53;;;;;;;8.25;1.00;;;;;;;11.43;61.16;100940.59;5071170;28;20432;-88
2021/10/22 06:08:20;;;;;;;10.18;1.65;;;;;;;11.47;61.20;100939.47;5071187;28;20070;-88
2021/10/22 06:10:46;;;;;;;8.90;1.17;;;;;;;11.46;61.36;100945.66;5071673;28;20020;-88
2021/10/22 06:13:14;;;;;;;5.28;1.38;;;;;;;11.45;60.85;100951.88;5067585;28;20499;-88
2021/10/22 06:15:39;;;;;;;5.25;1.10;;;;;;;11.69;60.70;100948.63;5060057;28;20402;-88
2021/10/22 06:18:04;;;;;;;14.57;1.40;;;;;;;11.69;60.84;100957.34;5074261;28;20012;-89
2021/10/22 06:20:44;;;;;;;8.55;0.98;;;;;;;11.70;60.58;100945.88;5071380;28;20470;-89
2021/10/22 06:25:42;;;;;;;3.53;1.30;;;;;;;11.97;59.99;100950.34;5076488;28;20046;-89
2021/10/22 06:28:10;;;;;;;5.25;1.10;;;;;;;11.74;60.08;100951.78;5074250;28;20028;-89
2021/10/22 06:30:36;;;;;;;10.02;1.30;;;;;;;11.98;59.83;100948.56;5074086;28;20028;-88
2021/10/22 06:33:01;;;;;;;5.80;1.13;;;;;;;12.07;59.57;100947.97;5075029;28;20032;-89
2021/10/22 06:35:27;;;;;;;5.10;1.60;;;;;;;12.03;59.53;100942.06;5075320;28;20576;-88
2021/10/22 06:37:54;;;;;;;4.50;1.38;;;;;;;12.11;59.96;100954.72;5074811;28;20024;-89
2021/10/22 06:40:21;;;;;;;6.00;1.10;;;;;;;12.08;59.72;100944.38;5075037;28;20025;-89
2021/10/22 06:42:46;;;;;;;9.52;1.17;;;;;;;12.22;59.27;100951.34;5074995;28;20598;-89
2021/10/22 06:45:11;;;;;;;7.28;1.10;;;;;;;12.23;59.34;100959.16;5075066;28;20103;-89
2021/10/22 06:47:37;;;;;;;4.07;1.30;;;;;;;12.33;59.76;100956.75;5075069;28;20025;-89
2021/10/22 06:50:04;;;;;;;5.63;1.33;;;;;;;12.44;59.17;100963.94;5071498;28;20031;-90
2021/10/22 06:52:30;;;;;;;6.50;1.40;;;;;;;12.37;59.67;100960.03;5074614;28;20431;-90
2021/10/22 06:54:56;;;;;;;5.20;1.52;;;;;;;12.16;59.62;100960.50;5075327;28;20054;-89
2021/10/22 06:57:22;;;;;;;9.88;1.08;;;;;;;12.45;59.51;100957.72;5074523;28;20060;-90
2021/10/22 06:59:47;;;;;;;4.78;1.20;;;;;;;12.47;59.21;100964.56;5074889;28;20075;-89
2021/10/22 07:02:13;;;;;;;8.15;1.33;;;;;;;12.61;59.45;100958.38;5074776;28;20110;-90
2021/10/22 07:04:47;;;;;;;9.00;1.08;;;;;;;12.66;59.11;100964.19;5074889;28;20155;-90
2021/10/22 07:07:15;;;;;;;6.97;1.33;;;;;;;12.69;58.83;100966.59;5074492;28;20069;-89
2021/10/22 07:09:42;;;;;;;5.95;1.20;;;;;;;12.73;58.32;100974.31;5074517;28;20016;-89
2021/10/22 07:12:08;;;;;;;3.90;0.85;;;;;;;12.81;58.62;100967.56;5074784;28;20075;-89
2021/10/22 07:14:35;;;;;;;9.55;1.05;;;;;;;12.85;58.69;100971.66;5074530;28;20024;-90
2021/10/22 07:17:02;;;;;;;7.88;1.35;;;;;;;12.54;58.43;100980.84;5074468;28;20029;-89
2021/10/22 07:19:28;;;;;;;1.92;0.70;;;;;;;12.95;58.36;100977.16;5074461;28;20392;-89
2021/10/22 07:21:53;;;;;;;5.05;0.90;;;;;;;12.81;58.13;100983.38;5073859;28;20025;-89
2021/10/22 07:24:23;;;;;;;3.05;0.60;;;;;;;12.93;58.59;100984.31;5074345;28;20035;-89
2021/10/22 07:26:49;;;;;;;4.88;0.68;;;;;;;13.08;58.23;100983.28;5073879;28;20032;-89
2021/10/22 07:29:16;;;;;;;2.22;0.70;;;;;;;13.10;58.05;100988.44;5073316;28;20122;-89
2021/10/22 07:31:41;;;;;;;6.28;1.20;;;;;;;12.75;58.60;100996.13;5073726;28;20028;-89
2021/10/22 07:34:08;;;;;;;5.40;0.90;;;;;;;13.21;57.88;100992.97;5074240;28;20035;-89
2021/10/22 07:36:34;;;;;;;6.22;1.00;;;;;;;13.10;57.80;100999.81;5073836;28;20020;-90
2021/10/22 07:38:59;;;;;;;6.38;1.00;;;;;;;13.07;57.95;100986.00;5065269;28;20032;-89
2021/10/22 07:41:24;;;;;;;4.65;0.85;;;;;;;13.35;57.86;101006.09;5063559;28;20493;-89
2021/10/22 07:43:50;;;;;;;5.10;0.60;;;;;;;13.11;57.87;101005.94;5074128;28;20029;-89
2021/10/22 07:46:16;;;;;;;4.18;1.10;;;;;;;13.73;57.36;101009.59;5075389;28;20086;-89
2021/10/22 07:48:43;;;;;;;7.63;0.80;;;;;;;14.00;56.62;101014.66;5074077;28;20375;-89
2021/10/22 07:51:09;;;;;;;3.35;1.05;;;;;;;14.54;55.78;101010.72;5074021;28;20036;-90
2021/10/22 07:53:34;;;;;;;1.75;0.47;;;;;;;14.67;54.77;101016.78;5073872;28;20029;-90
2021/10/22 07:56:00;;;;;;;3.92;0.65;;;;;;;14.77;55.16;101028.34;5073995;28;20471;-90
2021/10/22 07:58:26;;;;;;;4.43;1.08;;;;;;;14.61;55.03;101023.38;5073865;28;20107;-90
2021/10/22 08:00:51;;;;;;;3.58;0.60;;;;;;;14.50;55.66;101031.25;5072005;28;20020;-89
2021/10/22 08:03:16;;;;;;;2.25;0.60;;;;;;;14.82;55.09;101038.56;5073848;28;20052;-90
2021/10/22 08:05:42;;;;;;;1.10;0.30;;;;;;;14.32;55.86;101037.91;5073828;28;20023;-90
2021/10/22 08:08:08;;;;;;;2.17;0.50;;;;;;;14.85;55.14;101046.28;5073491;28;20032;-89
2021/10/22 08:10:34;;;;;;;4.07;0.70;;;;;;;14.64;55.44;101044.28;5073563;28;20085;-90
2021/10/22 08:13:01;;;;;;;4.70;1.13;;;;;;;14.74;55.11;101043.59;5073498;28;20119;-89
2021/10/22 08:15:27;;;;;;;5.45;0.63;;;;;;;14.80;55.70;101043.13;5073360;28;20028;-89
2021/10/22 08:17:53;;;;;;;4.20;0.98;;;;;;;14.93;54.87;101033.31;5073205;28;20493;-89
2021/10/22 08:20:22;;;;;;;5.43;1.45;;;;;;;14.82;55.56;101036.75;5072890;28;20036;-89
2021/10/22 08:22:49;;;;;;;4.55;0.68;;;;;;;15.08;54.79;101047.16;5073300;28;20032;-90
2021/10/22 08:25:17;;;;;;;4.10;1.20;;;;;;;15.26;54.92;101051.06;5073390;28;20467;-89
2021/10/22 08:27:45;;;;;;;4.13;0.68;;;;;;;15.01;55.52;101064.47;5073486;28;20089;-90
2021/10/22 08:30:25;;;;;;;4.55;0.80;;;;;;;15.71;54.33;101065.25;5073041;28;20039;-89
2021/10/22 08:32:52;;;;;;;7.43;0.93;;;;;;;15.47;54.11;101060.91;5070581;28;20025;-90
2021/10/22 08:35:19;;;;;;;5.70;0.73;;;;;;;15.37;54.43;101065.25;5072632;28;20024;-90
2021/10/22 08:37:46;;;;;;;1.90;0.50;;;;;;;15.99;54.22;101072.69;5071431;28;20115;-90
2021/10/22 08:40:12;;;;;;;7.90;0.80;;;;;;;15.68;54.66;101076.91;5073234;28;20063;-90
2021/10/22 08:42:37;;;;;;;0.70;0.30;;;;;;;15.65;55.45;101080.63;5073088;28;20060;-90
2021/10/22 08:45:05;;;;;;;2.97;0.60;;;;;;;15.55;55.99;101086.78;5073153;28;20120;-90
2021/10/22 08:47:31;;;;;;;1.90;0.75;;;;;;;15.67;55.11;101099.06;5072859;28;20052;-90
2021/10/22 08:50:01;;;;;;;2.83;0.38;;;;;;;16.05;54.96;101101.34;5072302;28;20039;-87
2021/10/22 08:52:28;;;;;;;4.28;0.50;;;;;;;16.90;53.58;101101.59;5072748;28;20044;-88
2021/10/22 08:54:57;;;;;;;2.55;0.47;;;;;;;18.34;52.21;101104.22;5071392;28;20475;-87
2021/10/22 08:57:23;;;;;;;1.35;0.40;;;;;;;19.66;48.33;101102.66;5072825;28;20408;-88
2021/10/22 08:59:49;;;;;;;1.77;0.35;;;;;;;20.93;44.38;101110.75;5072374;28;20107;-88
2021/10/22 09:02:15;;;;;;;2.10;0.30;;;;;;;20.11;44.62;101107.25;5072495;28;20031;-87
2021/10/22 09:04:45;;;;;;;4.65;0.77;;;;;;;20.28;44.99;101107.41;5072589;28;20085;-87
2021/10/22 09:07:11;;;;;;;2.58;0.45;;;;;;;20.18;44.36;101110.16;5072497;28;20024;-88
2021/10/22 09:09:37;;;;;;;2.90;0.30;;;;;;;19.65;45.45;101111.66;5072529;28;20024;-88
2021/10/22 09:12:03;;;;;;;1.70;0.30;;;;;;;19.17;46.59;101112.63;5072507;28;20433;-88
2021/10/22 09:14:28;;;;;;;7.88;0.93;;;;;;;18.50;48.10;101119.63;5071910;28;20040;-87
2021/10/22 09:16:54;;;;;;;4.50;0.55;;;;;;;17.63;49.85;101118.34;5071990;28;20056;-90
2021/10/22 09:19:33;;;;;;;2.97;0.50;;;;;;;17.24;50.93;101124.31;5072322;28;20058;-90
2021/10/22 09:22:18;;;;;;;2.10;0.80;;;;;;;16.89;52.06;101124.63;5072158;28;20024;-90
2021/10/22 09:24:50;;;;;;;1.65;0.50;;;;;;;16.96;52.12;101128.44;5072380;28;20111;-90
2021/10/22 09:27:32;;;;;;;5.07;0.70;;;;;;;16.84;52.62;101127.66;5072170;28;20020;-90
2021/10/22 09:29:57;;;;;;;1.77;0.30;;;;;;;16.75;52.37;101124.91;5071762;28;20410;-90
2021/10/22 09:32:23;;;;;;;2.70;0.32;;;;;;;17.35;51.60;101123.38;5072076;28;20032;-89
2021/10/22 09:34:51;;;;;;;3.42;0.55;;;;;;;18.67;49.50;101134.06;5070647;28;20032;-89
2021/10/22 09:37:17;;;;;;;1.83;0.93;;;;;;;20.05;47.32;101128.34;5072178;28;20056;-90
2021/10/22 09:39:42;;;;;;;5.95;1.02;;;;;;;20.26;44.40;101136.94;5071969;28;20056;-88
2021/10/22 09:42:16;;;;;;;2.67;0.63;;;;;;;20.93;43.83;101134.78;5072012;28;20497;-87
2021/10/22 09:44:46;;;;;;;5.40;0.50;;;;;;;21.70;41.94;101143.00;5071523;28;20025;-87
2021/10/22 09:47:19;;;;;;;2.13;0.40;;;;;;;21.71;41.33;101136.63;5070978;28;20107;-88
2021/10/22 09:49:46;;;;;;;1.67;0.40;;;;;;;22.81;39.07;101136.66;5071958;28;20020;-91
2021/10/22 09:52:26;;;;;;;3.47;0.40;;;;;;;23.59;39.33;101145.97;5071878;28;20025;-90
2021/10/22 09:55:07;;;;;;;2.00;0.50;;;;;;;23.92;38.69;101146.72;5071693;28;20025;-90
2021/10/22 09:57:33;;;;;;;1.63;0.27;;;;;;;24.52;36.53;101134.53;5071708;28;20028;-90
2021/10/22 10:00:06;;;;;;;1.73;0.45;;;;;;;24.58;37.30;101143.72;5086220;28;20627;-91
2021/10/22 10:02:36;;;;;;;2.53;0.35;;;;;;;24.51;36.87;101140.09;5071579;28;20099;-90
2021/10/22 10:05:07;;;;;;;1.00;0.20;;;;;;;25.67;36.18;101136.22;5071787;28;20494;-90
2021/10/22 10:07:38;;;;;;;3.88;0.50;;;;;;;25.68;34.34;101137.03;5071609;28;20124;-90
2021/10/22 10:10:05;;;;;;;2.13;0.50;;;;;;;25.20;35.33;101140.03;5070460;28;20162;-90
2021/10/22 10:12:33;;;;;;;5.43;0.65;;;;;;;25.26;35.30;101141.19;5070285;28;20029;-88
2021/10/22 10:14:59;;;;;;;2.67;0.40;;;;;;;25.43;35.77;101131.09;5071248;28;20134;-88
2021/10/22 10:17:27;;;;;;;2.40;0.60;;;;;;;25.59;35.68;101117.47;5070771;28;20463;-88
2021/10/22 10:19:53;;;;;;;2.08;0.25;;;;;;;26.15;34.72;101121.53;5071555;28;20012;-88
2021/10/22 10:22:25;;;;;;;6.90;0.60;;;;;;;25.65;35.42;101113.19;5071498;28;20082;-88
2021/10/22 10:24:57;;;;;;;2.25;0.47;;;;;;;25.51;35.57;101120.25;5071704;28;20029;-87
2021/10/22 10:27:25;;;;;;;5.15;0.40;;;;;;;25.28;35.32;101126.53;5070633;28;20020;-87
2021/10/22 10:29:59;;;;;;;2.30;0.40;;;;;;;25.76;33.85;101122.66;5071441;28;20017;-88
2021/10/22 10:32:28;;;;;;;3.35;0.20;;;;;;;26.19;33.62;101138.97;5071446;28;20498;-88
2021/10/22 10:35:10;;;;;;;2.30;0.43;;;;;;;25.32;35.14;101135.91;5071083;28;20055;-88
2021/10/22 10:37:40;;;;;;;1.85;0.30;;;;;;;25.66;34.07;101145.28;5071324;28;20024;-87
2021/10/22 10:40:07;;;;;;;2.72;0.20;;;;;;;25.65;33.80;101142.78;5071334;28;20028;-88
2021/10/22 10:42:45;;;;;;;2.72;0.30;;;;;;;25.13;34.87;101133.72;5071296;28;20029;-88
2021/10/22 10:45:25;;;;;;;1.45;0.43;;;;;;;25.65;34.37;101132.03;5071493;28;20032;-88
2021/10/22 10:48:10;;;;;;;1.33;0.20;;;;;;;26.40;33.48;101132.75;5071406;28;20029;-88
2021/10/22 10:50:56;;;;;;;2.20;0.32;;;;;;;25.14;35.17;101140.75;5051083;28;20119;-88
2021/10/22 10:53:44;;;;;;;0.15;0.00;;;;;;;25.21;34.26;101152.44;5051370;28;20067;-88
2021/10/22 10:56:18;;;;;;;2.00;0.20;;;;;;;23.92;35.80;101156.63;5051293;28;20033;-88
2021/10/22 10:58:45;;;;;;;1.23;0.20;;;;;;;25.09;34.25;101157.41;5052368;28;20523;-88
2021/10/22 11:01:28;;;;;;;3.45;0.60;;;;;;;24.89;35.54;101149.03;5066125;28;20040;-88
2021/10/22 11:03:54;;;;;;;1.80;0.40;;;;;;;24.60;35.33;101154.28;5075092;28;20020;-88
2021/10/22 11:06:35;;;;;;;1.15;0.30;;;;;;;23.91;36.62;101165.66;5075050;28;20112;-88
2021/10/22 11:09:01;;;;;;;2.92;0.40;;;;;;;22.87;37.82;101178.81;5074662;28;20108;-88
2021/10/22 11:11:33;;;;;;;1.30;0.30;;;;;;;22.41;38.94;101172.22;5074608;28;20028;-88
2021/10/22 11:14:05;;;;;;;1.80;0.40;;;;;;;21.94;39.48;101171.69;5074900;28;20490;-88
2021/10/22 11:16:45;;;;;;;3.00;0.30;;;;;;;21.56;40.71;101162.28;5074126;28;20047;-88
2021/10/22 11:19:12;;;;;;;1.65;0.28;;;;;;;21.22;41.63;101180.88;5074817;28;20413;-87
2021/10/22 11:21:39;;;;;;;3.25;0.43;;;;;;;21.89;41.19;101173.16;5074198;28;20517;-87
2021/10/22 11:24:07;;;;;;;2.17;0.32;;;;;;;21.47;40.76;101185.44;5073967;28;20035;-88
2021/10/22 11:26:34;;;;;;;1.77;0.20;;;;;;;21.11;41.54;101165.91;5074621;28;20554;-87
2021/10/22 11:29:20;;;;;;;1.55;0.35;;;;;;;20.74;42.66;101185.63;5074038;28;20024;-87